createdAt,value
2019-04-16T00:02:09.363Z,5.40
2019-04-16T00:05:00.680Z,5.40
2019-04-16T00:07:53.900Z,5.40
2019-04-16T00:10:22.762Z,5.40
2019-04-16T00:13:23.766Z,5.50
2019-04-16T00:16:06.665Z,5.50
2019-04-16T00:18:57.345Z,5.50
2019-04-16T00:21:26.446Z,5.50
2019-04-16T00:29:04.465Z,5.60
2019-04-16T00:31:34.306Z,5.60
2019-04-16T00:34:17.287Z,5.70
2019-04-16T00:37:00.356Z,5.70
2019-04-16T00:39:49.436Z,5.70
2019-04-16T00:42:41.817Z,5.70
2019-04-16T00:45:24.428Z,5.70
2019-04-16T00:48:07.055Z,5.60
2019-04-16T00:50:56.075Z,5.60
2019-04-16T00:53:23.103Z,5.60
2019-04-16T00:56:13.393Z,5.60
2019-04-16T00:59:03.572Z,5.70
2019-04-16T01:04:19.044Z,5.70
2019-04-16T01:07:01.632Z,5.70
2019-04-16T01:09:38.664Z,5.70
2019-04-16T01:12:27.237Z,5.80
2019-04-16T01:15:16.632Z,5.80
2019-04-16T01:18:08.072Z,5.80
2019-04-16T01:20:44.054Z,5.70
2019-04-16T01:25:55.534Z,5.80
2019-04-16T01:28:54.200Z,5.70
2019-04-16T01:31:21.243Z,5.70
2019-04-16T01:33:56.079Z,5.70
2019-04-16T01:39:17.931Z,5.60
2019-04-16T01:41:54.762Z,5.60
2019-04-16T01:44:28.531Z,5.70
2019-04-16T01:47:04.337Z,5.70
2019-04-16T01:49:52.988Z,5.70
2019-04-16T01:52:36.529Z,5.70
2019-04-16T01:55:26.550Z,5.70
2019-04-16T01:58:03.915Z,5.70
2019-04-16T02:00:46.578Z,5.70
2019-04-16T02:03:22.445Z,5.70
2019-04-16T02:08:33.449Z,5.70
2019-04-16T02:11:22.448Z,5.70
2019-04-16T02:14:11.698Z,5.70
2019-04-16T02:16:55.974Z,5.70
2019-04-16T02:19:23.733Z,5.70
2019-04-16T02:58:11.788Z,5.40
2019-04-16T03:01:01.225Z,5.40
2019-04-16T03:03:44.377Z,5.40
2019-04-16T03:06:20.774Z,5.40
2019-04-16T03:08:50.346Z,5.30
2019-04-16T03:11:26.648Z,5.30
2019-04-16T03:14:03.163Z,5.20
2019-04-16T03:16:55.882Z,5.20
2019-04-16T03:19:29.586Z,5.10
2019-04-16T03:22:12.079Z,5.10
2019-04-16T03:24:41.659Z,5.10
2019-04-16T03:27:21.944Z,5.10
2019-04-16T03:29:56.146Z,5.00
2019-04-16T03:32:33.505Z,5.00
2019-04-16T03:35:03.043Z,5.00
2019-04-16T03:37:32.946Z,4.90
2019-04-16T03:40:17.537Z,4.90
2019-04-16T03:42:47.197Z,4.90
2019-04-16T03:45:22.981Z,4.80
2019-04-16T03:47:52.604Z,4.80
2019-04-16T03:50:22.048Z,4.80
2019-04-16T03:52:57.893Z,4.80
2019-04-16T03:55:27.401Z,4.80
2019-04-16T03:58:06.115Z,4.80
2019-04-16T04:00:34.435Z,4.80
2019-04-16T04:03:11.011Z,4.80
2019-04-16T04:05:47.651Z,4.70
2019-04-16T04:08:23.466Z,4.60
2019-04-16T04:10:53.234Z,4.60
2019-04-16T04:13:29.673Z,4.60
2019-04-16T04:16:12.471Z,4.70
2019-04-16T04:18:43.177Z,4.60
2019-04-16T04:21:22.126Z,4.60
2019-04-16T04:23:57.571Z,4.50
2019-04-16T04:26:28.123Z,4.50
2019-04-16T04:29:06.186Z,4.60
2019-04-16T04:31:35.901Z,4.60
2019-04-16T04:34:15.905Z,4.60
2019-04-16T04:36:43.683Z,4.60
2019-04-16T04:39:26.788Z,4.70
2019-04-16T04:41:57.207Z,4.70
2019-04-16T04:44:33.675Z,4.80
2019-04-16T04:47:04.524Z,4.90
2019-04-16T04:49:34.037Z,4.90
2019-04-16T04:52:13.571Z,5.00
2019-04-16T04:54:47.571Z,5.10
2019-04-16T04:57:23.527Z,5.20
2019-04-16T05:00:00.284Z,5.30
2019-04-16T05:02:36.297Z,5.40
2019-04-16T05:05:10.516Z,5.50
2019-04-16T05:07:46.650Z,5.70
2019-04-16T05:10:16.093Z,5.90
2019-04-16T05:12:53.536Z,6.10
2019-04-16T05:15:23.218Z,6.30
2019-04-16T05:18:06.050Z,6.50
2019-04-16T05:20:35.613Z,6.60
2019-04-16T05:23:12.026Z,6.70
2019-04-16T05:25:47.656Z,6.70
2019-04-16T05:28:24.170Z,6.90
2019-04-16T05:30:53.690Z,7.00
2019-04-16T05:33:29.865Z,7.10
2019-04-16T05:35:59.547Z,7.30
2019-04-16T05:38:42.463Z,7.40
2019-04-16T05:41:13.528Z,7.40
2019-04-16T05:43:43.085Z,7.60
2019-04-16T05:46:18.775Z,7.70
2019-04-16T05:48:48.273Z,7.80
2019-04-16T05:51:24.301Z,8.00
2019-04-16T05:54:12.361Z,8.00
2019-04-16T05:56:54.482Z,8.20
2019-04-16T05:59:33.488Z,8.40
2019-04-16T06:02:18.275Z,8.50
2019-04-16T06:04:46.109Z,8.70
2019-04-16T06:07:15.697Z,8.80
2019-04-16T06:09:51.310Z,8.90
2019-04-16T06:12:28.752Z,9.00
2019-04-16T06:14:59.846Z,9.10
2019-04-16T06:17:40.613Z,9.20
2019-04-16T06:20:21.069Z,9.30
2019-04-16T06:23:03.962Z,9.50
2019-04-16T06:25:50.239Z,9.70
2019-04-16T06:28:44.530Z,9.70
2019-04-16T06:31:28.248Z,9.70
2019-04-16T06:34:04.186Z,9.90
2019-04-16T06:36:41.662Z,9.90
2019-04-16T06:39:21.346Z,10.10
2019-04-16T06:42:01.725Z,10.20
2019-04-16T06:44:46.377Z,10.40
2019-04-16T06:47:42.043Z,10.40
2019-04-16T06:50:14.576Z,10.60
2019-04-16T06:53:07.990Z,10.70
2019-04-16T06:55:51.209Z,10.70
2019-04-16T06:58:43.993Z,10.80
2019-04-16T07:01:16.426Z,11.10
2019-04-16T07:03:59.682Z,11.20
2019-04-16T07:06:39.746Z,11.30
2019-04-16T07:09:23.388Z,11.50
2019-04-16T07:12:05.770Z,11.60
2019-04-16T07:14:36.177Z,11.80
2019-04-16T07:17:12.999Z,12.00
2019-04-16T07:19:42.839Z,12.10
2019-04-16T07:22:21.446Z,12.20
2019-04-16T07:24:52.607Z,12.20
2019-04-16T07:27:28.189Z,12.40
2019-04-16T07:30:05.156Z,12.50
2019-04-16T07:32:41.758Z,12.60
2019-04-16T07:35:29.178Z,12.70
2019-04-16T07:38:11.588Z,12.90
2019-04-16T07:40:42.181Z,13.10
2019-04-16T07:43:23.128Z,13.30
2019-04-16T07:46:02.866Z,13.50
2019-04-16T07:48:54.912Z,13.60
2019-04-16T07:51:28.652Z,13.80
2019-04-16T07:54:09.000Z,13.90
2019-04-16T07:56:40.234Z,14.10
2019-04-16T07:59:16.109Z,14.20
2019-04-16T08:01:58.943Z,14.30
2019-04-16T08:04:41.982Z,14.40
2019-04-16T08:07:20.445Z,14.60
2019-04-16T08:10:03.314Z,14.70
2019-04-16T08:12:47.001Z,14.80
2019-04-16T08:15:23.748Z,14.80
2019-04-16T08:17:59.440Z,14.90
2019-04-16T08:20:35.302Z,14.90
2019-04-16T08:23:22.689Z,14.90
2019-04-16T08:26:03.636Z,15.00
2019-04-16T08:28:29.799Z,15.10
2019-04-16T08:30:59.418Z,15.10
2019-04-16T08:33:35.589Z,15.10
2019-04-16T08:36:05.250Z,15.10
2019-04-16T08:38:40.847Z,15.20
2019-04-16T08:41:12.682Z,15.20
2019-04-16T08:43:47.847Z,15.30
2019-04-16T08:46:23.848Z,15.40
2019-04-16T08:48:59.694Z,15.60
2019-04-16T08:51:37.784Z,15.70
2019-04-16T08:54:17.696Z,15.70
2019-04-16T08:56:45.676Z,15.80
2019-04-16T08:59:21.996Z,15.90
2019-04-16T09:01:57.919Z,15.90
2019-04-16T09:04:41.395Z,15.90
2019-04-16T09:07:35.080Z,15.90
2019-04-16T09:10:18.178Z,15.90
2019-04-16T09:13:02.013Z,15.80
2019-04-16T09:15:28.948Z,15.90
2019-04-16T09:18:05.839Z,15.90
2019-04-16T09:20:43.008Z,15.90
2019-04-16T09:23:19.401Z,16.10
2019-04-16T09:26:11.372Z,16.20
2019-04-16T09:28:38.859Z,16.00
2019-04-16T09:31:24.957Z,16.10
2019-04-16T09:34:06.479Z,16.10
2019-04-16T09:37:00.289Z,16.10
2019-04-16T09:39:31.359Z,16.10
2019-04-16T09:42:07.882Z,16.20
2019-04-16T09:44:37.348Z,16.00
2019-04-16T09:47:13.276Z,16.10
2019-04-16T09:49:43.171Z,16.10
2019-04-16T09:52:12.773Z,16.30
2019-04-16T09:54:48.784Z,16.40
2019-04-16T09:57:24.781Z,16.40
2019-04-16T09:59:55.831Z,16.60
2019-04-16T10:02:40.256Z,16.60
2019-04-16T10:05:16.983Z,16.50
2019-04-16T10:07:53.275Z,16.40
2019-04-16T10:10:24.270Z,16.40
2019-04-16T10:12:55.064Z,16.40
2019-04-16T10:15:30.862Z,16.50
2019-04-16T10:18:01.515Z,16.60
2019-04-16T10:20:40.398Z,16.70
2019-04-16T10:23:10.829Z,16.30
2019-04-16T10:25:46.375Z,16.30
2019-04-16T10:28:17.901Z,16.40
2019-04-16T10:30:48.993Z,16.40
2019-04-16T10:33:24.748Z,16.60
2019-04-16T10:35:57.320Z,16.60
2019-04-16T10:38:33.812Z,16.60
2019-04-16T10:41:04.986Z,16.70
2019-04-16T10:43:58.184Z,16.80
2019-04-16T10:46:44.710Z,16.80
2019-04-16T10:49:24.765Z,16.80
2019-04-16T10:52:22.194Z,16.80
2019-04-16T10:55:09.361Z,16.90
2019-04-16T10:58:02.202Z,16.90
2019-04-16T11:00:33.400Z,16.90
2019-04-16T11:03:13.875Z,16.90
2019-04-16T11:05:45.153Z,16.90
2019-04-16T11:08:20.950Z,16.80
2019-04-16T11:10:50.656Z,16.60
2019-04-16T11:13:37.574Z,16.50
2019-04-16T11:16:15.203Z,16.60
2019-04-16T11:18:54.797Z,16.40
2019-04-16T11:21:22.754Z,16.40
2019-04-16T11:23:59.786Z,16.50
2019-04-16T11:26:29.620Z,16.50
2019-04-16T11:29:05.439Z,16.40
2019-04-16T11:31:41.708Z,16.40
2019-04-16T11:34:18.101Z,16.60
2019-04-16T11:36:47.565Z,16.70
2019-04-16T11:39:27.108Z,16.60
2019-04-16T11:41:56.729Z,16.60
2019-04-16T11:44:33.304Z,16.60
2019-04-16T11:47:04.576Z,16.60
2019-04-16T11:49:40.298Z,16.50
2019-04-16T11:52:09.980Z,16.40
2019-04-16T11:54:47.067Z,16.40
2019-04-16T11:57:17.342Z,16.40
2019-04-16T12:00:06.005Z,16.30
2019-04-16T12:02:32.594Z,16.30
2019-04-16T12:05:10.820Z,16.20
2019-04-16T12:08:04.807Z,16.20
2019-04-16T12:10:38.030Z,16.20
2019-04-16T12:13:36.661Z,16.20
2019-04-16T12:16:16.823Z,16.20
2019-04-16T12:19:09.623Z,16.20
2019-04-16T12:21:49.508Z,16.20
2019-04-16T12:24:36.559Z,16.10
2019-04-16T12:27:30.228Z,16.10
2019-04-16T12:30:07.614Z,15.90
2019-04-16T12:32:38.742Z,15.90
2019-04-16T12:35:31.082Z,15.80
2019-04-16T12:38:18.761Z,15.80
2019-04-16T12:41:07.977Z,15.80
2019-04-16T12:43:58.004Z,15.60
2019-04-16T12:46:44.704Z,15.60
2019-04-16T12:49:24.690Z,15.70
2019-04-16T12:51:55.961Z,15.80
2019-04-16T12:54:33.182Z,15.80
2019-04-16T12:57:26.493Z,15.90
2019-04-16T13:00:00.240Z,15.80
2019-04-16T13:02:37.758Z,15.30
2019-04-16T13:05:21.211Z,15.30
2019-04-16T13:08:02.293Z,15.00
2019-04-16T13:10:42.473Z,15.00
2019-04-16T13:13:19.793Z,14.80
2019-04-16T13:15:50.961Z,14.80
2019-04-16T13:18:29.030Z,14.70
2019-04-16T13:21:06.475Z,14.70
2019-04-16T13:23:51.323Z,14.70
2019-04-16T13:26:34.949Z,14.70
2019-04-16T13:29:16.428Z,14.70
2019-04-16T13:31:44.039Z,14.70
2019-04-16T13:34:20.072Z,14.80
2019-04-16T13:36:51.635Z,14.80
2019-04-16T13:39:22.775Z,14.80
2019-04-16T13:41:59.229Z,14.80
2019-04-16T13:44:37.645Z,14.80
2019-04-16T13:47:14.352Z,14.70
2019-04-16T13:49:51.800Z,14.50
2019-04-16T13:52:25.136Z,14.30
2019-04-16T13:55:08.121Z,14.40
2019-04-16T13:57:38.632Z,14.50
2019-04-16T14:00:20.509Z,14.40
2019-04-16T14:02:52.034Z,14.60
2019-04-16T14:05:28.552Z,14.40
2019-04-16T14:08:10.854Z,14.20
2019-04-16T14:10:47.110Z,14.10
2019-04-16T14:13:23.091Z,14.20
2019-04-16T14:15:52.704Z,14.40
2019-04-16T14:18:29.512Z,14.20
2019-04-16T14:20:59.683Z,14.30
2019-04-16T14:23:29.148Z,14.30
2019-04-16T14:26:05.313Z,14.30
2019-04-16T14:28:36.800Z,13.90
2019-04-16T14:31:16.425Z,13.90
2019-04-16T14:34:01.079Z,14.00
2019-04-16T14:36:37.113Z,13.90
2019-04-16T14:39:15.974Z,13.80
2019-04-16T14:41:52.506Z,13.70
2019-04-16T14:44:31.611Z,13.50
2019-04-16T14:47:08.410Z,13.60
2019-04-16T14:49:47.823Z,13.50
2019-04-16T14:52:22.455Z,13.50
2019-04-16T14:55:06.042Z,13.50
2019-04-16T14:57:39.793Z,13.40
2019-04-16T15:00:33.387Z,13.30
2019-04-16T15:03:10.518Z,13.30
2019-04-16T15:05:57.515Z,13.20
2019-04-16T15:08:43.468Z,13.20
2019-04-16T15:11:39.023Z,13.20
2019-04-16T15:14:13.257Z,13.10
2019-04-16T15:16:57.058Z,13.00
2019-04-16T15:19:42.121Z,13.00
2019-04-16T15:22:38.461Z,12.90
2019-04-16T15:25:31.957Z,12.70
2019-04-16T15:28:03.149Z,12.90
2019-04-16T15:30:52.853Z,12.80
2019-04-16T15:33:35.705Z,12.80
2019-04-16T15:36:19.824Z,12.80
2019-04-16T15:39:03.004Z,12.80
2019-04-16T15:41:49.189Z,12.70
2019-04-16T15:44:31.853Z,12.70
2019-04-16T15:47:18.335Z,12.50
2019-04-16T15:50:05.355Z,12.40
2019-04-16T15:52:51.340Z,12.40
2019-04-16T15:55:31.944Z,12.40
2019-04-16T15:58:14.933Z,12.10
2019-04-16T16:00:55.776Z,12.00
2019-04-16T16:03:43.305Z,12.00
2019-04-16T16:06:21.155Z,12.00
2019-04-16T16:09:08.839Z,11.80
2019-04-16T16:12:01.368Z,11.80
2019-04-16T16:14:34.652Z,11.80
2019-04-16T16:17:15.857Z,11.50
2019-04-16T16:19:51.917Z,11.50
2019-04-16T16:22:28.364Z,11.40
2019-04-16T16:25:06.039Z,11.20
2019-04-16T16:27:46.991Z,11.10
2019-04-16T16:30:20.690Z,11.20
2019-04-16T16:32:50.249Z,11.00
2019-04-16T16:35:26.920Z,11.00
2019-04-16T16:37:56.489Z,11.10
2019-04-16T16:40:26.120Z,11.10
2019-04-16T16:43:06.424Z,11.00
2019-04-16T16:45:51.627Z,11.00
2019-04-16T16:48:28.452Z,10.90
2019-04-16T16:51:05.019Z,11.00
2019-04-16T16:53:43.159Z,10.90
2019-04-16T16:56:30.400Z,10.80
2019-04-16T16:59:07.942Z,10.90
2019-04-16T17:01:54.357Z,10.70
2019-04-16T17:04:30.913Z,10.80
2019-04-16T17:07:00.955Z,10.80
2019-04-16T17:09:43.343Z,10.70
2019-04-16T17:12:19.591Z,10.60
2019-04-16T17:14:55.614Z,10.60
2019-04-16T17:17:32.163Z,10.60
2019-04-16T17:20:02.177Z,10.40
2019-04-16T17:22:40.738Z,10.40
2019-04-16T17:25:35.659Z,10.40
2019-04-16T17:28:00.019Z,10.30
2019-04-16T17:30:30.217Z,10.40
2019-04-16T17:33:06.924Z,10.40
2019-04-16T17:35:36.505Z,10.40
2019-04-16T17:38:13.046Z,10.40
2019-04-16T17:40:44.315Z,10.40
2019-04-16T17:43:30.541Z,10.30
2019-04-16T17:46:04.544Z,10.30
2019-04-16T17:48:45.117Z,10.30
2019-04-16T17:51:28.286Z,10.30
2019-04-16T17:53:59.533Z,10.10
2019-04-16T17:56:39.664Z,10.00
2019-04-16T17:59:11.071Z,10.00
2019-04-16T18:01:57.652Z,10.00
2019-04-16T18:04:45.549Z,9.90
2019-04-16T18:07:19.648Z,9.70
2019-04-16T18:10:10.643Z,9.60
2019-04-16T18:12:57.094Z,9.60
2019-04-16T18:15:34.543Z,9.60
2019-04-16T18:18:16.956Z,9.50
2019-04-16T18:21:03.443Z,9.40
2019-04-16T18:23:53.192Z,9.30
2019-04-16T18:26:40.341Z,9.20
2019-04-16T18:29:14.347Z,9.10
2019-04-16T18:31:56.042Z,9.10
2019-04-16T18:34:30.960Z,9.00
2019-04-16T18:37:24.656Z,9.00
2019-04-16T18:39:55.791Z,8.90
2019-04-16T18:42:33.519Z,8.80
2019-04-16T18:45:20.941Z,8.70
2019-04-16T18:48:04.745Z,8.80
2019-04-16T18:50:30.729Z,8.80
2019-04-16T18:53:10.041Z,8.80
2019-04-16T18:55:38.275Z,8.70
2019-04-16T18:58:14.803Z,8.80
2019-04-16T19:00:46.075Z,8.70
2019-04-16T19:03:22.038Z,8.60
2019-04-16T19:05:58.718Z,8.60
2019-04-16T19:08:42.101Z,8.70
2019-04-16T19:11:20.483Z,8.70
2019-04-16T19:13:57.325Z,8.80
2019-04-16T19:16:33.668Z,8.60
2019-04-16T19:19:03.305Z,8.50
2019-04-16T19:21:42.350Z,8.50
2019-04-16T19:24:18.121Z,8.40
2019-04-16T19:26:47.749Z,8.30
2019-04-16T19:29:17.296Z,8.30
2019-04-16T19:31:56.785Z,8.30
2019-04-16T19:34:25.342Z,8.30
2019-04-16T19:37:08.083Z,8.30
2019-04-16T19:39:37.790Z,8.30
2019-04-16T19:42:14.522Z,8.40
2019-04-16T19:44:44.217Z,8.30
2019-04-16T19:47:14.023Z,8.40
2019-04-16T19:49:50.367Z,8.50
2019-04-16T19:52:19.983Z,8.50
2019-04-16T19:54:58.169Z,8.50
2019-04-16T19:57:27.796Z,8.50
2019-04-16T20:00:03.900Z,8.40
2019-04-16T20:02:34.031Z,8.50
2019-04-16T20:05:10.822Z,8.50
2019-04-16T20:07:46.883Z,8.50
2019-04-16T20:10:16.436Z,8.60
2019-04-16T20:12:59.712Z,8.40
2019-04-16T20:15:29.677Z,8.50
2019-04-16T20:18:07.133Z,8.60
2019-04-16T20:20:36.829Z,8.60
2019-04-16T20:23:06.418Z,8.50
2019-04-16T20:25:42.891Z,8.40
2019-04-16T20:28:25.536Z,8.30
2019-04-16T20:31:01.942Z,8.30
2019-04-16T20:33:33.498Z,8.30
2019-04-16T20:36:09.524Z,8.40
2019-04-16T20:38:39.131Z,8.30
2019-04-16T20:41:18.127Z,8.40
2019-04-16T20:43:46.189Z,8.20
2019-04-16T20:46:21.976Z,8.30
2019-04-16T20:49:08.111Z,8.30
2019-04-16T20:51:35.753Z,8.20
2019-04-16T20:54:05.418Z,8.10
2019-04-16T20:56:34.966Z,8.10
2019-04-16T20:59:11.656Z,8.10
2019-04-16T21:01:41.443Z,8.00
2019-04-16T21:04:17.715Z,8.00
2019-04-16T21:06:53.433Z,8.10
2019-04-16T21:09:22.907Z,8.00
2019-04-16T21:12:05.135Z,8.00
2019-04-16T21:14:50.838Z,8.00
2019-04-16T21:17:19.121Z,7.80
2019-04-16T21:19:55.839Z,7.90
2019-04-16T21:22:28.032Z,7.80
2019-04-16T21:25:03.099Z,7.80
2019-04-16T21:27:34.193Z,7.80
2019-04-16T21:30:17.075Z,7.80
2019-04-16T21:32:54.318Z,7.70
2019-04-16T21:35:32.768Z,7.60
2019-04-16T21:38:13.137Z,7.60
2019-04-16T21:40:49.578Z,7.60
2019-04-16T21:43:25.604Z,7.50
2019-04-16T21:45:55.221Z,7.50
2019-04-16T21:48:30.928Z,7.50
2019-04-16T21:51:07.716Z,7.60
2019-04-16T21:53:43.921Z,7.60
2019-04-16T21:56:13.379Z,7.70
2019-04-16T21:58:50.399Z,7.70
2019-04-16T22:01:21.602Z,7.60
2019-04-16T22:04:02.593Z,7.60
2019-04-16T22:06:39.007Z,7.60
2019-04-16T22:09:08.863Z,7.70
2019-04-16T22:11:44.967Z,7.70
2019-04-16T22:14:22.368Z,7.70
2019-04-16T22:16:59.947Z,7.80
2019-04-16T22:19:30.374Z,7.70
2019-04-16T22:22:07.098Z,7.70
2019-04-16T22:24:36.838Z,7.70
2019-04-16T22:27:13.258Z,7.80
2019-04-16T22:29:49.312Z,7.80
2019-04-16T22:32:27.066Z,7.80
2019-04-16T22:34:56.328Z,7.80
2019-04-16T22:37:31.923Z,7.80
2019-04-16T22:40:09.403Z,7.70
2019-04-16T22:42:56.550Z,7.60
2019-04-16T22:45:25.744Z,7.60
2019-04-16T22:48:02.092Z,7.60
2019-04-16T22:50:34.742Z,7.70
2019-04-16T22:53:09.451Z,7.60
2019-04-16T22:55:56.364Z,7.40
2019-04-16T22:58:32.614Z,7.40
2019-04-16T23:01:04.009Z,7.40
2019-04-16T23:03:39.971Z,7.20
2019-04-16T23:06:09.485Z,7.10
2019-04-16T23:08:45.847Z,7.10
2019-04-16T23:11:15.364Z,7.00
2019-04-16T23:13:51.347Z,6.90
2019-04-16T23:19:21.259Z,6.80
2019-04-16T23:21:57.049Z,6.70
2019-04-16T23:24:33.575Z,6.70
2019-04-16T23:27:05.726Z,6.70
2019-04-16T23:29:40.491Z,6.50
2019-04-16T23:32:10.005Z,6.50
2019-04-16T23:34:45.600Z,6.50
2019-04-16T23:37:23.398Z,6.40
2019-04-16T23:40:00.019Z,6.40
2019-04-16T23:42:37.165Z,6.40
2019-04-16T23:45:32.218Z,6.30
2019-04-16T23:48:14.185Z,6.20
2019-04-16T23:50:45.699Z,6.20
2019-04-16T23:53:32.750Z,6.10
2019-04-16T23:56:17.843Z,6.10
2019-04-16T23:58:49.675Z,6.00
